createdAt,value
2018-01-28T00:00:23.369Z,7.07
2018-01-28T00:02:50.824Z,6.47
2018-01-28T00:05:18.297Z,9.20
2018-01-28T00:07:45.749Z,8.03
2018-01-28T00:10:13.230Z,10.27
2018-01-28T00:12:40.685Z,9.00
2018-01-28T00:15:08.128Z,8.50
2018-01-28T00:17:35.608Z,7.17
2018-01-28T00:20:03.045Z,9.77
2018-01-28T00:22:30.549Z,9.40
2018-01-28T00:24:57.998Z,7.57
2018-01-28T00:27:25.472Z,7.20
2018-01-28T00:29:52.977Z,8.57
2018-01-28T00:32:20.434Z,5.90
2018-01-28T00:34:47.881Z,8.50
2018-01-28T00:37:15.385Z,8.43
2018-01-28T00:39:42.834Z,6.70
2018-01-28T00:42:10.318Z,7.90
2018-01-28T00:44:37.785Z,10.57
2018-01-28T00:47:05.261Z,6.80
2018-01-28T00:49:32.751Z,6.27
2018-01-28T00:52:00.205Z,7.50
2018-01-28T00:54:27.685Z,6.27
2018-01-28T00:56:55.141Z,7.23
2018-01-28T00:59:22.677Z,8.00
2018-01-28T01:01:50.130Z,9.77
2018-01-28T01:04:18.368Z,8.70
2018-01-28T01:06:45.813Z,7.17
2018-01-28T01:09:13.294Z,10.80
2018-01-28T01:11:40.768Z,7.90
2018-01-28T01:14:09.010Z,9.63
2018-01-28T01:16:36.572Z,7.90
2018-01-28T01:19:04.036Z,9.40
2018-01-28T01:21:31.493Z,10.50
2018-01-28T01:23:58.985Z,9.67
2018-01-28T01:26:26.433Z,9.17
2018-01-28T01:28:53.880Z,10.50
2018-01-28T01:31:21.365Z,10.27
2018-01-28T01:33:48.827Z,10.67
2018-01-28T01:36:16.268Z,9.87
2018-01-28T01:38:43.741Z,8.63
2018-01-28T01:41:11.190Z,9.00
2018-01-28T01:43:38.662Z,9.83
2018-01-28T01:46:06.139Z,11.83
2018-01-28T01:48:33.605Z,10.00
2018-01-28T01:51:01.055Z,8.27
2018-01-28T01:53:28.533Z,6.77
2018-01-28T01:55:55.985Z,9.60
2018-01-28T01:58:23.509Z,10.90
2018-01-28T02:00:50.985Z,6.57
2018-01-28T02:03:18.441Z,10.60
2018-01-28T02:05:45.961Z,10.63
2018-01-28T02:08:13.437Z,6.67
2018-01-28T02:10:40.893Z,12.47
2018-01-28T02:13:08.349Z,8.80
2018-01-28T02:15:36.647Z,12.33
2018-01-28T02:18:04.145Z,12.03
2018-01-28T02:20:31.629Z,9.43
2018-01-28T02:22:59.860Z,11.53
2018-01-28T02:25:27.313Z,12.87
2018-01-28T02:27:54.796Z,12.30
2018-01-28T02:30:22.279Z,12.57
2018-01-28T02:32:49.737Z,12.23
2018-01-28T02:35:17.221Z,10.57
2018-01-28T02:37:44.681Z,11.70
2018-01-28T02:40:12.157Z,12.37
2018-01-28T02:42:39.636Z,10.43
2018-01-28T02:45:07.093Z,11.37
2018-01-28T02:47:34.585Z,10.17
2018-01-28T02:50:02.033Z,10.50
2018-01-28T02:52:29.509Z,12.53
2018-01-28T02:54:56.972Z,14.13
2018-01-28T02:57:24.449Z,13.27
2018-01-28T02:59:51.928Z,13.80
2018-01-28T03:02:19.400Z,11.10
2018-01-28T03:04:46.885Z,13.83
2018-01-28T03:07:14.357Z,13.10
2018-01-28T03:09:42.577Z,12.00
2018-01-28T03:12:10.053Z,13.30
2018-01-28T03:14:37.525Z,13.17
2018-01-28T03:17:05.014Z,12.60
2018-01-28T03:19:33.288Z,14.60
2018-01-28T03:22:01.570Z,12.03
2018-01-28T03:24:29.785Z,10.80
2018-01-28T03:26:57.428Z,12.10
2018-01-28T03:29:24.897Z,10.00
2018-01-28T03:31:52.373Z,11.30
2018-01-28T03:34:20.010Z,9.10
2018-01-28T03:36:47.494Z,11.20
2018-01-28T03:39:14.993Z,12.03
2018-01-28T03:41:43.209Z,12.50
2018-01-28T03:44:10.661Z,11.77
2018-01-28T03:46:38.137Z,11.40
2018-01-28T03:49:05.662Z,12.00
2018-01-28T03:51:33.122Z,12.00
2018-01-28T03:54:00.624Z,12.37
2018-01-28T03:56:28.080Z,9.53
2018-01-28T03:58:55.585Z,13.30
2018-01-28T04:01:23.041Z,13.83
2018-01-28T04:03:50.493Z,12.63
2018-01-28T04:06:17.965Z,13.30
2018-01-28T04:08:45.445Z,13.80
2018-01-28T04:11:12.921Z,11.93
2018-01-28T04:13:40.396Z,12.27
2018-01-28T04:16:08.613Z,13.07
2018-01-28T04:18:36.202Z,15.00
2018-01-28T04:21:03.665Z,12.97
2018-01-28T04:23:31.138Z,15.03
2018-01-28T04:25:58.609Z,14.77
2018-01-28T04:28:26.065Z,11.43
2018-01-28T04:30:53.552Z,14.70
2018-01-28T04:33:21.034Z,16.03
2018-01-28T04:35:48.477Z,13.80
2018-01-28T04:38:15.952Z,16.13
2018-01-28T04:40:43.416Z,15.47
2018-01-28T04:43:10.890Z,12.23
2018-01-28T04:45:38.345Z,13.90
2018-01-28T04:48:05.885Z,15.97
2018-01-28T04:50:33.365Z,16.20
2018-01-28T04:53:00.852Z,13.50
2018-01-28T04:55:28.308Z,10.97
2018-01-28T04:57:55.784Z,17.50
2018-01-28T05:00:23.240Z,16.47
2018-01-28T05:02:50.732Z,14.60
2018-01-28T05:05:18.184Z,16.33
2018-01-28T05:07:45.639Z,18.17
2018-01-28T05:10:13.115Z,18.70
2018-01-28T05:12:40.575Z,17.43
2018-01-28T05:15:08.049Z,18.57
2018-01-28T05:17:35.505Z,18.63
2018-01-28T05:20:03.088Z,14.00
2018-01-28T05:22:30.865Z,16.77
2018-01-28T05:24:58.329Z,18.90
2018-01-28T05:27:25.806Z,19.37
2018-01-28T05:29:54.050Z,13.83
2018-01-28T05:32:21.542Z,15.87
2018-01-28T05:34:49.760Z,17.63
2018-01-28T05:37:17.213Z,15.83
2018-01-28T05:39:44.752Z,18.00
2018-01-28T05:42:12.213Z,17.73
2018-01-28T05:44:39.696Z,18.80
2018-01-28T05:47:07.151Z,18.47
2018-01-28T05:49:34.609Z,17.50
2018-01-28T05:52:02.089Z,16.53
2018-01-28T05:54:29.570Z,19.97
2018-01-28T05:56:57.026Z,20.43
2018-01-28T05:59:24.500Z,19.37
2018-01-28T06:01:51.966Z,20.70
2018-01-28T06:04:19.501Z,21.87
2018-01-28T06:06:46.962Z,20.27
2018-01-28T06:09:14.449Z,15.77
2018-01-28T06:11:41.938Z,16.90
2018-01-28T06:14:09.417Z,19.30
2018-01-28T06:16:36.873Z,13.73
2018-01-28T06:19:04.359Z,23.90
2018-01-28T06:21:31.822Z,20.90
2018-01-28T06:24:00.081Z,20.67
2018-01-28T06:26:27.532Z,23.67
2018-01-28T06:28:55.017Z,20.37
2018-01-28T06:31:22.473Z,23.47
2018-01-28T06:33:49.946Z,20.97
2018-01-28T06:36:18.213Z,21.50
2018-01-28T06:38:45.664Z,26.10
2018-01-28T06:41:13.144Z,16.77
2018-01-28T06:43:40.603Z,26.20
2018-01-28T06:46:08.057Z,25.40
2018-01-28T06:48:35.541Z,21.93
2018-01-28T06:51:03.024Z,26.30
2018-01-28T06:53:30.481Z,24.60
2018-01-28T06:55:57.958Z,27.57
2018-01-28T06:58:25.427Z,27.33
2018-01-28T07:00:52.894Z,26.67
2018-01-28T07:03:21.146Z,22.80
2018-01-28T07:05:48.641Z,19.80
2018-01-28T07:08:16.113Z,24.40
2018-01-28T07:10:43.571Z,26.30
2018-01-28T07:13:11.065Z,21.97
2018-01-28T07:15:38.524Z,25.80
2018-01-28T07:18:05.999Z,28.33
2018-01-28T07:20:33.485Z,28.40
2018-01-28T07:23:01.733Z,26.17
2018-01-28T07:25:29.184Z,20.03
2018-01-28T07:27:56.642Z,29.90
2018-01-28T07:30:24.117Z,30.10
2018-01-28T07:32:51.578Z,24.80
2018-01-28T07:35:19.061Z,28.03
2018-01-28T07:37:47.503Z,30.37
2018-01-28T07:40:15.163Z,25.53
2018-01-28T07:42:42.906Z,30.47
2018-01-28T07:45:10.789Z,29.93
2018-01-28T07:47:38.546Z,29.90
2018-01-28T07:50:06.212Z,29.97
2018-01-28T07:52:33.990Z,29.37
2018-01-28T07:55:01.858Z,27.67
2018-01-28T07:57:29.542Z,26.00
2018-01-28T07:59:58.016Z,29.87
2018-01-28T08:02:27.198Z,28.30
2018-01-28T08:04:54.937Z,32.07
2018-01-28T08:07:22.413Z,29.70
2018-01-28T08:09:51.959Z,30.20
2018-01-28T08:15:22.472Z,30.00
2018-01-28T08:17:50.041Z,31.30
2018-01-28T08:20:17.554Z,28.30
2018-01-28T08:22:45.040Z,26.97
2018-01-28T08:25:12.498Z,25.73
2018-01-28T08:27:40.781Z,22.47
2018-01-28T08:30:08.249Z,28.50
2018-01-28T08:32:36.133Z,29.37
2018-01-28T08:35:03.597Z,26.33
2018-01-28T08:37:31.175Z,29.03
2018-01-28T08:39:58.676Z,25.83
2018-01-28T08:42:26.309Z,28.13
2018-01-28T08:44:53.797Z,25.97
2018-01-28T08:47:21.264Z,26.37
2018-01-28T08:49:48.748Z,27.90
2018-01-28T08:52:16.251Z,28.80
2018-01-28T08:54:43.696Z,29.73
2018-01-28T08:57:11.292Z,25.03
2018-01-28T08:59:39.001Z,31.30
2018-01-28T09:02:06.505Z,26.90
2018-01-28T09:04:34.272Z,24.83
2018-01-28T09:07:01.744Z,26.07
2018-01-28T09:09:29.439Z,20.50
2018-01-28T09:11:57.021Z,14.70
2018-01-28T09:14:25.463Z,17.23
2018-01-28T09:16:53.744Z,15.77
2018-01-28T09:19:21.468Z,11.47
2018-01-28T09:21:49.009Z,12.73
2018-01-28T09:24:16.658Z,11.30
2018-01-28T09:26:44.372Z,11.10
2018-01-28T09:29:11.876Z,8.57
2018-01-28T09:31:40.109Z,7.40
2018-01-28T09:34:07.650Z,5.87
2018-01-28T09:36:35.412Z,5.80
2018-01-28T09:39:02.884Z,7.00
2018-01-28T09:41:30.416Z,7.97
2018-01-28T09:43:57.896Z,8.27
2018-01-28T09:46:25.472Z,8.20
2018-01-28T09:48:52.976Z,4.70
2018-01-28T09:51:21.266Z,7.90
2018-01-28T09:53:49.550Z,7.70
2018-01-28T09:56:17.005Z,6.47
2018-01-28T09:58:44.468Z,6.83
2018-01-28T10:01:11.925Z,5.77
2018-01-28T10:03:39.427Z,7.73
2018-01-28T10:06:06.899Z,5.20
2018-01-28T10:08:34.374Z,4.90
2018-01-28T10:11:01.849Z,5.90
2018-01-28T10:13:29.346Z,4.53
2018-01-28T10:15:56.794Z,3.93
2018-01-28T10:18:24.318Z,4.20
2018-01-28T10:20:52.576Z,3.27
2018-01-28T10:23:20.026Z,4.70
2018-01-28T10:25:47.481Z,4.17
2018-01-28T10:28:14.957Z,3.13
2018-01-28T10:30:42.437Z,2.63
2018-01-28T10:33:09.891Z,2.70
2018-01-28T10:35:38.137Z,3.80
2018-01-28T10:38:05.597Z,4.27
2018-01-28T10:40:33.077Z,3.80
2018-01-28T10:43:01.346Z,2.97
2018-01-28T10:45:29.594Z,3.73
2018-01-28T10:47:57.132Z,4.50
2018-01-28T10:50:24.621Z,3.23
2018-01-28T10:52:52.074Z,3.70
2018-01-28T10:55:19.550Z,2.83
2018-01-28T10:57:47.021Z,3.03
2018-01-28T11:00:14.473Z,5.30
2018-01-28T11:02:42.810Z,3.80
2018-01-28T11:05:10.312Z,3.60
2018-01-28T11:07:38.560Z,4.17
2018-01-28T11:10:07.089Z,2.57
2018-01-28T11:12:35.329Z,5.57
2018-01-28T11:15:02.805Z,4.17
2018-01-28T11:17:30.939Z,6.00
2018-01-28T11:19:58.409Z,5.37
2018-01-28T11:22:25.897Z,2.50
2018-01-28T11:24:53.356Z,6.13
2018-01-28T11:27:20.838Z,6.73
2018-01-28T11:29:48.281Z,6.20
2018-01-28T11:32:15.777Z,5.10
2018-01-28T11:34:43.332Z,3.73
2018-01-28T11:37:10.870Z,5.80
2018-01-28T11:39:38.425Z,4.60
2018-01-28T11:42:06.719Z,6.70
2018-01-28T11:44:34.318Z,3.43
2018-01-28T11:47:01.793Z,6.07
2018-01-28T11:49:29.288Z,5.60
2018-01-28T11:51:56.776Z,6.30
2018-01-28T11:54:24.297Z,6.63
2018-01-28T11:56:51.772Z,3.73
2018-01-28T11:59:19.262Z,6.27
2018-01-28T12:01:47.680Z,4.77
2018-01-28T12:04:15.918Z,5.43
2018-01-28T12:06:43.397Z,5.70
2018-01-28T12:09:10.856Z,5.57
2018-01-28T12:11:38.375Z,3.80
2018-01-28T12:14:05.900Z,4.73
2018-01-28T12:16:34.841Z,4.57
2018-01-28T12:19:03.015Z,5.50
2018-01-28T12:21:30.692Z,5.93
2018-01-28T12:23:58.243Z,5.63
2018-01-28T12:26:25.981Z,3.73
2018-01-28T12:28:53.728Z,3.40
2018-01-28T12:31:22.217Z,4.07
2018-01-28T12:33:50.292Z,4.40
2018-01-28T12:36:17.980Z,5.40
2018-01-28T12:38:45.584Z,6.27
2018-01-28T12:41:13.190Z,4.40
2018-01-28T12:43:40.697Z,4.77
2018-01-28T12:46:08.432Z,5.00
2018-01-28T12:48:35.951Z,4.37
2018-01-28T12:51:05.369Z,4.80
2018-01-28T12:53:33.005Z,4.93
2018-01-28T12:56:00.534Z,3.93
2018-01-28T12:58:28.045Z,5.57
2018-01-28T13:00:55.885Z,6.43
2018-01-28T13:03:23.548Z,4.20
2018-01-28T13:05:51.446Z,7.00
2018-01-28T13:08:19.881Z,7.57
2018-01-28T13:10:47.561Z,7.00
2018-01-28T13:13:15.812Z,3.37
2018-01-28T13:15:43.269Z,5.53
2018-01-28T13:18:10.751Z,8.83
2018-01-28T13:20:38.213Z,7.40
2018-01-28T13:23:06.431Z,7.33
2018-01-28T13:25:34.156Z,6.37
2018-01-28T13:28:01.710Z,8.87
2018-01-28T13:30:29.239Z,6.50
2018-01-28T13:32:57.572Z,7.30
2018-01-28T13:35:26.045Z,6.27
2018-01-28T13:37:53.565Z,6.33
2018-01-28T13:40:21.432Z,5.80
2018-01-28T13:42:48.956Z,6.07
2018-01-28T13:45:16.474Z,8.40
2018-01-28T13:47:44.195Z,8.03
2018-01-28T13:50:11.668Z,8.10
2018-01-28T13:52:39.216Z,8.50
2018-01-28T13:55:06.969Z,8.50
2018-01-28T13:57:34.453Z,7.77
2018-01-28T14:00:01.961Z,9.30
2018-01-28T14:02:29.544Z,7.63
2018-01-28T14:04:57.085Z,8.47
2018-01-28T14:07:24.635Z,10.47
2018-01-28T14:09:52.438Z,5.17
2018-01-28T14:12:20.092Z,5.50
2018-01-28T14:14:47.548Z,5.40
2018-01-28T14:17:15.072Z,8.87
2018-01-28T14:19:43.304Z,6.60
2018-01-28T14:22:11.009Z,5.37
2018-01-28T14:24:39.461Z,9.03
2018-01-28T14:27:06.936Z,5.43
2018-01-28T14:29:34.401Z,8.27
2018-01-28T14:32:01.881Z,8.77
2018-01-28T14:34:29.358Z,8.20
2018-01-28T14:36:56.841Z,6.60
2018-01-28T14:39:24.332Z,7.20
2018-01-28T14:41:51.789Z,9.87
2018-01-28T14:44:19.290Z,5.10
2018-01-28T14:46:46.803Z,5.40
2018-01-28T14:49:14.287Z,10.33
2018-01-28T14:51:42.530Z,10.07
2018-01-28T14:54:10.039Z,7.27
2018-01-28T14:56:37.502Z,9.23
2018-01-28T14:59:04.992Z,10.40
2018-01-28T15:01:32.473Z,8.83
2018-01-28T15:03:59.927Z,7.67
2018-01-28T15:06:27.400Z,8.20
2018-01-28T15:08:54.913Z,9.87
2018-01-28T15:11:22.381Z,9.03
2018-01-28T15:13:49.860Z,9.67
2018-01-28T15:16:17.343Z,8.77
2018-01-28T15:18:45.605Z,10.10
2018-01-28T15:21:13.056Z,7.20
2018-01-28T15:23:40.549Z,6.57
2018-01-28T15:26:08.783Z,8.50
2018-01-28T15:28:36.297Z,8.50
2018-01-28T15:31:03.773Z,8.90
2018-01-28T15:33:31.244Z,9.63
2018-01-28T15:35:58.853Z,8.30
2018-01-28T15:38:27.077Z,7.30
2018-01-28T15:40:54.581Z,10.40
2018-01-28T15:43:22.813Z,7.03
2018-01-28T15:45:50.305Z,10.90
2018-01-28T15:48:17.774Z,9.73
2018-01-28T15:50:46.012Z,7.67
2018-01-28T15:53:13.501Z,8.50
2018-01-28T15:55:40.980Z,8.83
2018-01-28T15:58:10.293Z,7.20
2018-01-28T16:00:37.749Z,10.30
2018-01-28T16:03:05.235Z,6.07
2018-01-28T16:05:32.717Z,9.93
2018-01-28T16:08:00.173Z,8.67
2018-01-28T16:10:27.642Z,10.40
2018-01-28T16:12:55.120Z,11.40
2018-01-28T16:15:22.823Z,8.60
2018-01-28T16:17:50.516Z,5.47
2018-01-28T16:20:18.487Z,11.27
2018-01-28T16:22:46.269Z,12.23
2018-01-28T16:25:14.152Z,12.43
2018-01-28T16:27:42.680Z,12.60
2018-01-28T16:30:10.163Z,15.33
2018-01-28T16:32:37.630Z,14.87
2018-01-28T16:35:05.245Z,12.10
2018-01-28T16:37:33.021Z,9.17
2018-01-28T16:40:00.777Z,14.67
2018-01-28T16:42:29.099Z,10.53
2018-01-28T16:44:56.777Z,13.40
2018-01-28T16:47:24.265Z,12.50
2018-01-28T16:49:51.758Z,11.20
2018-01-28T16:52:19.219Z,14.47
2018-01-28T16:54:46.744Z,13.50
2018-01-28T16:57:14.186Z,12.10
2018-01-28T16:59:41.641Z,13.87
2018-01-28T17:02:09.885Z,13.17
2018-01-28T17:04:37.372Z,11.20
2018-01-28T17:07:05.621Z,10.50
2018-01-28T17:09:33.111Z,6.97
2018-01-28T17:12:01.497Z,9.37
2018-01-28T17:14:28.997Z,9.97
2018-01-28T17:16:56.854Z,12.73
2018-01-28T17:19:24.345Z,8.07
2018-01-28T17:21:51.825Z,11.43
2018-01-28T17:24:20.054Z,10.60
2018-01-28T17:26:47.577Z,11.60
2018-01-28T17:29:15.101Z,10.57
2018-01-28T17:31:42.581Z,9.57
2018-01-28T17:34:10.801Z,8.20
2018-01-28T17:36:38.287Z,7.50
2018-01-28T17:39:05.748Z,6.30
2018-01-28T17:41:33.238Z,9.00
2018-01-28T17:44:01.803Z,9.20
2018-01-28T17:46:30.499Z,8.33
2018-01-28T17:48:58.288Z,7.00
2018-01-28T17:51:26.180Z,5.97
2018-01-28T17:53:53.717Z,5.50
2018-01-28T17:56:21.451Z,6.67
2018-01-28T17:58:48.959Z,6.13
2018-01-28T18:01:16.701Z,7.90
2018-01-28T18:03:44.197Z,9.13
2018-01-28T18:06:11.693Z,5.70
2018-01-28T18:08:40.142Z,8.23
2018-01-28T18:11:07.594Z,8.63
2018-01-28T18:13:35.142Z,9.53
2018-01-28T18:16:02.801Z,9.30
2018-01-28T18:18:32.200Z,7.77
2018-01-28T18:21:00.125Z,8.23
2018-01-28T18:23:27.640Z,5.80
2018-01-28T18:25:55.337Z,9.90
2018-01-28T18:28:23.203Z,9.97
2018-01-28T18:30:51.457Z,9.70
2018-01-28T18:33:18.964Z,6.93
2018-01-28T18:35:46.474Z,9.50
2018-01-28T18:38:13.942Z,10.83
2018-01-28T18:40:41.561Z,5.90
2018-01-28T18:43:09.017Z,9.53
2018-01-28T18:45:36.474Z,9.40
2018-01-28T18:48:04.063Z,10.83
2018-01-28T18:50:31.513Z,9.50
2018-01-28T18:52:59.004Z,7.60
2018-01-28T18:55:26.485Z,8.93
2018-01-28T18:57:53.956Z,7.63
2018-01-28T19:00:21.458Z,7.20
2018-01-28T19:02:48.959Z,8.37
2018-01-28T19:05:16.426Z,8.83
2018-01-28T19:07:44.643Z,8.57
2018-01-28T19:10:12.221Z,8.10
2018-01-28T19:12:39.804Z,12.10
2018-01-28T19:15:07.296Z,11.10
2018-01-28T19:17:34.733Z,13.20
2018-01-28T19:20:02.253Z,8.40
2018-01-28T19:22:29.732Z,10.40
2018-01-28T19:24:57.189Z,17.98
2018-01-28T19:27:24.665Z,16.10
2018-01-28T19:29:52.144Z,16.00
2018-01-28T19:32:19.621Z,12.30
2018-01-28T19:34:47.110Z,15.37
2018-01-28T19:37:14.687Z,16.30
2018-01-28T19:39:42.205Z,12.83
2018-01-28T19:42:09.668Z,18.17
2018-01-28T19:44:38.053Z,16.07
2018-01-28T19:47:05.517Z,10.07
2018-01-28T19:49:33.004Z,12.30
2018-01-28T19:52:00.812Z,6.77
2018-01-28T19:54:28.595Z,11.23
2018-01-28T19:56:56.061Z,9.73
2018-01-28T19:59:23.558Z,11.50
2018-01-28T20:01:51.061Z,7.90
2018-01-28T20:04:18.564Z,9.00
2018-01-28T20:06:46.044Z,9.57
2018-01-28T20:09:14.578Z,10.47
2018-01-28T20:11:43.370Z,7.57
2018-01-28T20:14:10.972Z,7.70
2018-01-28T20:16:39.460Z,12.80
2018-01-28T20:19:07.856Z,11.50
2018-01-28T20:21:35.989Z,13.10
2018-01-28T20:24:04.515Z,15.33
2018-01-28T20:26:32.418Z,12.93
2018-01-28T20:28:59.914Z,13.97
2018-01-28T20:31:27.658Z,15.77
2018-01-28T20:33:55.193Z,10.63
2018-01-28T20:36:22.883Z,12.50
2018-01-28T20:38:50.531Z,9.97
2018-01-28T20:41:18.247Z,12.77
2018-01-28T20:43:47.090Z,10.17
2018-01-28T20:46:15.691Z,9.00
2018-01-28T20:48:43.219Z,13.07
2018-01-28T20:51:11.704Z,13.30
2018-01-28T20:53:39.466Z,10.10
2018-01-28T20:56:07.241Z,10.30
2018-01-28T20:58:35.017Z,10.70
2018-01-28T21:01:03.042Z,12.80
2018-01-28T21:03:31.596Z,19.10
2018-01-28T21:05:59.436Z,16.10
2018-01-28T21:08:27.069Z,19.30
2018-01-28T21:10:54.890Z,16.23
2018-01-28T21:13:22.794Z,20.37
2018-01-28T21:15:51.233Z,18.67
2018-01-28T21:18:19.035Z,16.37
2018-01-28T21:20:46.771Z,18.00
2018-01-28T21:23:15.345Z,18.73
2018-01-28T21:25:42.876Z,12.13
2018-01-28T21:28:10.401Z,17.23
2018-01-28T21:30:37.964Z,16.90
2018-01-28T21:33:06.232Z,18.30
2018-01-28T21:35:34.545Z,18.83
2018-01-28T21:38:02.161Z,20.40
2018-01-28T21:40:29.700Z,12.43
2018-01-28T21:42:57.197Z,20.00
2018-01-28T21:45:25.431Z,19.07
2018-01-28T21:47:53.693Z,19.67
2018-01-28T21:50:21.158Z,16.13
2018-01-28T21:52:49.397Z,14.00
2018-01-28T21:55:16.876Z,18.90
2018-01-28T21:57:44.365Z,18.23
2018-01-28T22:00:11.893Z,20.43
2018-01-28T22:02:39.366Z,12.90
2018-01-28T22:05:06.880Z,15.67
2018-01-28T22:07:34.360Z,17.67
2018-01-28T22:10:01.808Z,17.80
2018-01-28T22:12:29.292Z,14.63
2018-01-28T22:14:56.758Z,16.20
2018-01-28T22:17:24.262Z,17.37
2018-01-28T22:19:53.077Z,9.47
2018-01-28T22:22:20.545Z,10.70
2018-01-28T22:24:48.016Z,20.87
2018-01-28T22:27:15.485Z,17.13
2018-01-28T22:29:43.016Z,16.27
2018-01-28T22:32:10.471Z,18.97
2018-01-28T22:34:37.929Z,20.07
2018-01-28T22:37:05.422Z,19.77
2018-01-28T22:39:32.876Z,20.07
2018-01-28T22:42:00.349Z,16.40
2018-01-28T22:44:27.840Z,18.93
2018-01-28T22:46:55.307Z,20.57
2018-01-28T22:49:22.783Z,16.10
2018-01-28T22:51:50.256Z,18.27
2018-01-28T22:54:17.745Z,12.17
2018-01-28T22:56:45.206Z,14.33
2018-01-28T22:59:12.714Z,18.87
2018-01-28T23:01:40.217Z,16.83
2018-01-28T23:04:07.685Z,16.10
2018-01-28T23:06:35.137Z,16.67
2018-01-28T23:09:02.641Z,17.33
2018-01-28T23:11:30.092Z,20.97
2018-01-28T23:13:57.558Z,14.90
2018-01-28T23:16:26.274Z,13.53
2018-01-28T23:18:53.748Z,16.60
2018-01-28T23:21:21.209Z,18.17
2018-01-28T23:23:48.705Z,15.13
2018-01-28T23:26:16.925Z,15.67
2018-01-28T23:28:44.478Z,14.47
2018-01-28T23:31:11.934Z,17.57
2018-01-28T23:33:39.484Z,19.10
2018-01-28T23:36:06.966Z,19.73
2018-01-28T23:38:34.426Z,11.27
2018-01-28T23:41:01.924Z,19.40
2018-01-28T23:43:30.163Z,20.07
2018-01-28T23:45:57.625Z,18.97
2018-01-28T23:48:25.192Z,18.20
2018-01-28T23:50:52.636Z,13.90
2018-01-28T23:53:20.105Z,17.13
2018-01-28T23:55:47.602Z,12.73
2018-01-28T23:58:15.826Z,17.03
